createdAt,value
2023-01-18T00:01:19.388Z,-2.80
2023-01-18T00:03:46.312Z,-2.79
2023-01-18T00:06:13.460Z,-2.84
2023-01-18T00:08:42.327Z,-2.86
2023-01-18T00:11:15.794Z,-2.82
2023-01-18T00:13:43.335Z,-2.79
2023-01-18T00:16:19.287Z,-3.02
2023-01-18T00:18:57.182Z,-3.13
2023-01-18T00:21:26.843Z,-3.04
2023-01-18T00:23:55.800Z,-3.01
2023-01-18T00:26:22.354Z,-3.01
2023-01-18T00:28:48.991Z,-2.99
2023-01-18T00:31:20.844Z,-2.98
2023-01-18T00:33:49.920Z,-2.84
2023-01-18T00:36:18.044Z,-2.84
2023-01-18T00:38:52.161Z,-2.81
2023-01-18T00:41:21.195Z,-2.76
2023-01-18T00:43:48.200Z,-2.70
2023-01-18T00:46:22.343Z,-2.81
2023-01-18T00:48:49.991Z,-2.79
2023-01-18T00:51:24.194Z,-2.77
2023-01-18T00:53:51.602Z,-2.84
2023-01-18T00:56:21.654Z,-2.92
2023-01-18T00:58:48.718Z,-2.78
2023-01-18T01:01:15.920Z,-2.71
2023-01-18T01:04:01.030Z,-2.72
2023-01-18T01:06:44.511Z,-2.77
2023-01-18T01:09:28.641Z,-2.79
2023-01-18T01:12:16.900Z,-2.77
2023-01-18T01:15:06.285Z,-2.79
2023-01-18T01:17:55.308Z,-2.75
2023-01-18T01:20:42.216Z,-2.83
2023-01-18T01:23:37.710Z,-2.85
2023-01-18T01:26:10.953Z,-2.84
2023-01-18T01:28:49.844Z,-2.87
2023-01-18T01:31:18.356Z,-2.84
2023-01-18T01:33:46.601Z,-2.78
2023-01-18T01:36:17.606Z,-2.83
2023-01-18T01:38:44.243Z,-2.85
2023-01-18T01:41:28.575Z,-3.01
2023-01-18T01:43:58.804Z,-3.04
2023-01-18T01:46:56.010Z,-3.05
2023-01-18T01:49:33.303Z,-3.32
2023-01-18T01:52:05.386Z,-3.32
2023-01-18T01:54:56.187Z,-3.34
2023-01-18T01:57:31.099Z,-3.41
2023-01-18T02:00:15.595Z,-3.43
2023-01-18T02:02:48.872Z,-3.50
2023-01-18T02:05:18.309Z,-3.54
2023-01-18T02:07:45.659Z,-3.57
2023-01-18T02:10:12.256Z,-3.64
2023-01-18T02:12:42.458Z,-3.67
2023-01-18T02:15:09.740Z,-3.56
2023-01-18T02:18:07.004Z,-3.58
2023-01-18T02:21:07.687Z,-3.57
2023-01-18T02:24:00.326Z,-3.56
2023-01-18T02:26:48.658Z,-3.46
2023-01-18T02:29:18.781Z,-3.43
2023-01-18T02:32:29.272Z,-3.45
2023-01-18T02:35:17.831Z,-3.48
2023-01-18T02:38:07.419Z,-3.45
2023-01-18T02:40:51.455Z,-3.56
2023-01-18T02:43:40.770Z,-3.66
2023-01-18T02:46:32.523Z,-3.70
2023-01-18T02:49:06.468Z,-3.71
2023-01-18T02:51:33.400Z,-3.67
2023-01-18T02:54:02.518Z,-3.67
2023-01-18T02:56:47.188Z,-3.63
2023-01-18T02:59:34.870Z,-3.49
2023-01-18T03:02:26.386Z,-3.47
2023-01-18T03:04:55.454Z,-3.47
2023-01-18T03:07:35.520Z,-3.47
2023-01-18T03:10:06.780Z,-3.50
2023-01-18T03:12:53.480Z,-3.54
2023-01-18T03:15:44.249Z,-3.57
2023-01-18T03:18:34.325Z,-3.63
2023-01-18T03:21:05.489Z,-3.68
2023-01-18T03:23:39.938Z,-3.64
2023-01-18T03:26:16.407Z,-3.55
2023-01-18T03:29:12.698Z,-3.71
2023-01-18T03:32:07.683Z,-3.69
2023-01-18T03:35:03.537Z,-3.76
2023-01-18T03:37:38.351Z,-3.79
2023-01-18T03:40:18.176Z,-3.70
2023-01-18T03:43:08.852Z,-3.58
2023-01-18T03:45:49.052Z,-3.40
2023-01-18T03:48:16.493Z,-3.22
2023-01-18T03:50:52.452Z,-3.23
2023-01-18T03:53:48.041Z,-3.28
2023-01-18T03:56:27.667Z,-3.50
2023-01-18T03:59:03.486Z,-3.65
2023-01-18T04:01:30.706Z,-3.69
2023-01-18T04:04:00.036Z,-3.69
2023-01-18T04:06:27.756Z,-3.59
2023-01-18T04:08:54.201Z,-3.45
2023-01-18T04:11:20.668Z,-3.31
2023-01-18T04:13:47.181Z,-3.28
2023-01-18T04:16:13.812Z,-3.40
2023-01-18T04:18:40.636Z,-3.44
2023-01-18T04:21:07.401Z,-3.48
2023-01-18T04:23:33.883Z,-3.63
2023-01-18T04:26:00.374Z,-3.76
2023-01-18T04:28:26.835Z,-3.75
2023-01-18T04:30:56.360Z,-3.80
2023-01-18T04:33:26.479Z,-3.80
2023-01-18T04:35:56.989Z,-3.78
2023-01-18T04:38:23.676Z,-3.79
2023-01-18T04:40:50.700Z,-3.78
2023-01-18T04:43:17.528Z,-3.76
2023-01-18T04:45:53.081Z,-3.79
2023-01-18T04:48:19.596Z,-3.73
2023-01-18T04:50:46.561Z,-3.72
2023-01-18T04:53:13.017Z,-3.84
2023-01-18T04:55:39.475Z,-3.81
2023-01-18T04:58:05.969Z,-3.88
2023-01-18T05:00:32.492Z,-3.87
2023-01-18T05:02:59.304Z,-3.83
2023-01-18T05:05:26.464Z,-3.74
2023-01-18T05:07:53.281Z,-3.61
2023-01-18T05:10:19.842Z,-3.49
2023-01-18T05:12:46.358Z,-3.57
2023-01-18T05:15:12.918Z,-3.63
2023-01-18T05:17:39.457Z,-3.65
2023-01-18T05:20:07.716Z,-3.74
2023-01-18T05:22:34.711Z,-3.72
2023-01-18T05:25:01.901Z,-3.69
2023-01-18T05:27:28.391Z,-3.67
2023-01-18T05:29:54.918Z,-3.64
2023-01-18T05:32:21.446Z,-3.70
2023-01-18T05:34:47.927Z,-3.71
2023-01-18T05:37:14.384Z,-3.61
2023-01-18T05:39:40.898Z,-3.51
2023-01-18T05:42:08.419Z,-3.64
2023-01-18T05:44:34.923Z,-3.74
2023-01-18T05:47:01.604Z,-3.79
2023-01-18T05:49:29.375Z,-3.85
2023-01-18T05:51:55.870Z,-3.99
2023-01-18T05:54:22.442Z,-3.88
2023-01-18T05:56:48.925Z,-3.85
2023-01-18T05:59:15.642Z,-3.93
2023-01-18T06:01:42.717Z,-3.94
2023-01-18T06:04:09.374Z,-3.87
2023-01-18T06:06:35.987Z,-3.73
2023-01-18T06:09:03.421Z,-3.72
2023-01-18T06:11:29.944Z,-3.69
2023-01-18T06:13:56.486Z,-3.69
2023-01-18T06:16:24.393Z,-3.76
2023-01-18T06:18:50.938Z,-3.84
2023-01-18T06:21:17.863Z,-3.82
2023-01-18T06:23:44.714Z,-3.83
2023-01-18T06:26:11.217Z,-3.84
2023-01-18T06:28:37.715Z,-3.82
2023-01-18T06:31:07.706Z,-3.91
2023-01-18T06:33:34.985Z,-3.94
2023-01-18T06:36:01.998Z,-3.91
2023-01-18T06:38:29.678Z,-3.88
2023-01-18T06:40:56.209Z,-3.95
2023-01-18T06:43:22.989Z,-3.97
2023-01-18T06:45:56.859Z,-3.96
2023-01-18T06:48:24.872Z,-4.02
2023-01-18T06:50:52.762Z,-4.02
2023-01-18T06:53:22.415Z,-4.01
2023-01-18T06:56:01.648Z,-4.06
2023-01-18T06:58:30.996Z,-3.89
2023-01-18T07:01:00.457Z,-3.88
2023-01-18T07:03:31.216Z,-4.03
2023-01-18T07:06:02.217Z,-4.12
2023-01-18T07:08:34.262Z,-4.17
2023-01-18T07:11:06.139Z,-4.25
2023-01-18T07:13:32.663Z,-4.21
2023-01-18T07:16:01.872Z,-4.14
2023-01-18T07:18:30.476Z,-4.03
2023-01-18T07:21:08.607Z,-3.87
2023-01-18T07:23:38.051Z,-3.77
2023-01-18T07:26:08.847Z,-3.81
2023-01-18T07:28:36.219Z,-3.84
2023-01-18T07:31:04.725Z,-3.87
2023-01-18T07:33:31.830Z,-3.88
2023-01-18T07:35:59.055Z,-3.81
2023-01-18T07:38:26.034Z,-3.75
2023-01-18T07:41:02.079Z,-3.65
2023-01-18T07:43:30.873Z,-3.63
2023-01-18T07:45:58.318Z,-3.77
2023-01-18T07:48:27.068Z,-3.82
2023-01-18T07:50:56.156Z,-3.85
2023-01-18T07:53:24.347Z,-3.97
2023-01-18T07:55:51.139Z,-4.01
2023-01-18T07:58:18.827Z,-3.90
2023-01-18T08:00:46.512Z,-3.76
2023-01-18T08:03:15.775Z,-3.68
2023-01-18T08:05:44.045Z,-3.53
2023-01-18T08:08:15.453Z,-3.41
2023-01-18T08:10:43.517Z,-3.33
2023-01-18T08:13:10.931Z,-3.30
2023-01-18T08:15:39.109Z,-3.24
2023-01-18T08:18:08.133Z,-3.21
2023-01-18T08:20:35.193Z,-3.22
2023-01-18T08:23:02.423Z,-3.23
2023-01-18T08:25:32.686Z,-3.37
2023-01-18T08:28:02.320Z,-3.56
2023-01-18T08:30:36.486Z,-3.55
2023-01-18T08:33:04.523Z,-3.45
2023-01-18T08:35:39.948Z,-3.30
2023-01-18T08:38:06.571Z,-3.16
2023-01-18T08:40:33.012Z,-3.06
2023-01-18T08:43:02.277Z,-3.03
2023-01-18T08:45:29.919Z,-2.97
2023-01-18T08:48:07.292Z,-2.96
2023-01-18T08:50:36.113Z,-2.94
2023-01-18T08:53:04.012Z,-2.89
2023-01-18T08:55:30.963Z,-2.87
2023-01-18T08:57:58.832Z,-2.83
2023-01-18T09:00:30.186Z,-2.77
2023-01-18T09:02:58.494Z,-2.71
2023-01-18T09:05:26.972Z,-2.70
2023-01-18T09:07:55.311Z,-2.68
2023-01-18T09:10:23.138Z,-2.66
2023-01-18T09:12:51.619Z,-2.63
2023-01-18T09:15:19.313Z,-2.81
2023-01-18T09:17:46.293Z,-2.89
2023-01-18T09:20:13.115Z,-2.95
2023-01-18T09:22:39.883Z,-2.92
2023-01-18T09:25:06.947Z,-2.94
2023-01-18T09:27:33.731Z,-2.87
2023-01-18T09:30:00.548Z,-2.83
2023-01-18T09:32:27.429Z,-2.76
2023-01-18T09:34:54.795Z,-2.81
2023-01-18T09:37:22.176Z,-2.95
2023-01-18T09:39:52.760Z,-3.16
2023-01-18T09:42:28.668Z,-2.93
2023-01-18T09:45:01.047Z,-2.64
2023-01-18T09:47:34.340Z,-2.39
2023-01-18T09:50:15.220Z,-2.21
2023-01-18T09:52:57.260Z,-2.11
2023-01-18T09:55:46.404Z,-2.11
2023-01-18T09:58:47.464Z,-1.92
2023-01-18T10:01:26.466Z,-1.70
2023-01-18T10:04:00.828Z,-1.58
2023-01-18T10:06:43.323Z,-1.51
2023-01-18T10:09:26.236Z,-1.40
2023-01-18T10:12:00.214Z,-1.33
2023-01-18T10:14:56.481Z,-1.48
2023-01-18T10:17:36.157Z,-1.53
2023-01-18T10:20:23.930Z,-1.39
2023-01-18T10:22:59.308Z,-1.24
2023-01-18T10:25:53.183Z,-1.12
2023-01-18T10:28:41.095Z,-1.09
2023-01-18T10:31:22.980Z,-1.04
2023-01-18T10:33:56.296Z,-0.98
2023-01-18T10:36:33.384Z,-0.87
2023-01-18T10:39:28.009Z,-0.93
2023-01-18T10:42:01.850Z,-0.89
2023-01-18T10:44:29.308Z,-0.80
2023-01-18T10:47:01.268Z,-0.87
2023-01-18T10:49:36.503Z,-0.91
2023-01-18T10:52:32.475Z,-0.81
2023-01-18T10:55:03.411Z,-0.68
2023-01-18T10:57:36.864Z,-0.52
2023-01-18T11:00:30.651Z,-0.40
2023-01-18T11:03:00.047Z,-0.26
2023-01-18T11:05:38.256Z,-0.44
2023-01-18T11:08:33.518Z,-0.38
2023-01-18T11:11:50.567Z,-0.29
2023-01-18T11:14:30.563Z,-0.25
2023-01-18T11:17:11.333Z,-0.13
2023-01-18T11:19:39.326Z,-0.01
2023-01-18T11:22:13.513Z,0.01
2023-01-18T11:24:40.287Z,0.14
2023-01-18T11:27:23.026Z,0.15
2023-01-18T11:29:50.456Z,0.27
2023-01-18T11:32:27.812Z,0.37
2023-01-18T11:34:59.741Z,0.48
2023-01-18T11:37:37.202Z,0.39
2023-01-18T11:40:18.911Z,0.15
2023-01-18T11:42:48.603Z,0.19
2023-01-18T11:45:26.622Z,0.11
2023-01-18T11:48:22.620Z,0.11
2023-01-18T11:50:58.850Z,0.10
2023-01-18T11:53:55.593Z,0.14
2023-01-18T11:56:40.767Z,0.23
2023-01-18T11:59:24.690Z,0.32
2023-01-18T12:02:34.391Z,0.37
2023-01-18T12:05:36.482Z,0.37
2023-01-18T12:08:43.815Z,0.43
2023-01-18T12:11:32.804Z,0.44
2023-01-18T12:14:30.991Z,0.57
2023-01-18T12:17:07.105Z,0.68
2023-01-18T12:20:22.815Z,0.77
2023-01-18T12:23:29.783Z,0.79
2023-01-18T12:26:24.407Z,0.77
2023-01-18T12:28:59.988Z,0.76
2023-01-18T12:32:14.928Z,0.79
2023-01-18T12:34:56.153Z,0.72
2023-01-18T12:37:49.349Z,0.91
2023-01-18T12:40:33.827Z,0.98
2023-01-18T12:43:37.717Z,0.89
2023-01-18T12:46:21.451Z,0.83
2023-01-18T12:49:00.581Z,0.93
2023-01-18T12:51:34.124Z,0.93
2023-01-18T12:54:15.785Z,0.91
2023-01-18T12:56:49.770Z,0.86
2023-01-18T12:59:40.757Z,0.95
2023-01-18T13:02:33.427Z,0.92
2023-01-18T13:05:06.869Z,0.80
2023-01-18T13:07:44.007Z,0.80
2023-01-18T13:10:26.903Z,0.88
2023-01-18T13:12:56.951Z,0.89
2023-01-18T13:15:42.770Z,0.84
2023-01-18T13:18:25.955Z,0.83
2023-01-18T13:21:16.712Z,0.72
2023-01-18T13:24:17.145Z,0.69
2023-01-18T13:26:45.374Z,0.67
2023-01-18T13:29:30.852Z,0.72
2023-01-18T13:31:58.349Z,0.72
2023-01-18T13:34:33.565Z,0.67
2023-01-18T13:37:14.273Z,0.74
2023-01-18T13:39:48.215Z,0.76
2023-01-18T13:42:20.430Z,0.74
2023-01-18T13:44:50.052Z,0.78
2023-01-18T13:47:45.814Z,0.61
2023-01-18T13:50:40.007Z,0.56
2023-01-18T13:53:15.657Z,0.61
2023-01-18T13:56:04.902Z,0.58
2023-01-18T13:58:34.879Z,0.60
2023-01-18T14:01:05.090Z,0.57
2023-01-18T14:03:42.886Z,0.61
2023-01-18T14:06:30.106Z,0.40
2023-01-18T14:09:05.195Z,0.13
2023-01-18T14:11:37.945Z,0.40
2023-01-18T14:14:32.429Z,0.44
2023-01-18T14:17:07.495Z,0.50
2023-01-18T14:20:20.221Z,0.42
2023-01-18T14:23:17.093Z,0.36
2023-01-18T14:26:05.940Z,0.18
2023-01-18T14:28:52.186Z,0.25
2023-01-18T14:31:28.998Z,0.12
2023-01-18T14:33:55.748Z,0.16
2023-01-18T14:36:27.516Z,0.11
2023-01-18T14:39:13.878Z,0.10
2023-01-18T14:41:45.473Z,0.10
2023-01-18T14:44:58.306Z,0.10
2023-01-18T14:47:32.514Z,0.12
2023-01-18T14:50:03.899Z,0.10
2023-01-18T14:52:34.376Z,0.01
2023-01-18T14:55:01.087Z,-0.13
2023-01-18T14:57:27.675Z,-0.14
2023-01-18T15:00:08.262Z,-0.09
2023-01-18T15:02:38.714Z,-0.04
2023-01-18T15:05:14.158Z,-0.01
2023-01-18T15:07:41.529Z,-0.06
2023-01-18T15:10:09.611Z,-0.11
2023-01-18T15:12:38.754Z,-0.16
2023-01-18T15:15:18.134Z,-0.22
2023-01-18T15:17:44.686Z,-0.20
2023-01-18T15:20:15.179Z,-0.15
2023-01-18T15:22:42.926Z,-0.10
2023-01-18T15:25:26.170Z,-0.11
2023-01-18T15:27:54.560Z,-0.17
2023-01-18T15:30:24.265Z,-0.21
2023-01-18T15:32:57.443Z,-0.19
2023-01-18T15:35:25.734Z,-0.18
2023-01-18T15:37:52.479Z,-0.20
2023-01-18T15:40:18.942Z,-0.25
2023-01-18T15:43:05.781Z,-0.40
2023-01-18T15:45:40.272Z,-0.43
2023-01-18T15:48:22.432Z,-0.39
2023-01-18T15:50:53.601Z,-0.50
2023-01-18T15:53:29.610Z,-0.68
2023-01-18T15:56:03.293Z,-0.61
2023-01-18T15:58:47.478Z,-0.65
2023-01-18T16:01:13.949Z,-0.57
2023-01-18T16:03:58.571Z,-0.61
2023-01-18T16:06:25.919Z,-0.64
2023-01-18T16:09:12.830Z,-0.66
2023-01-18T16:11:46.417Z,-0.91
2023-01-18T16:14:27.677Z,-0.74
2023-01-18T16:17:22.809Z,-0.79
2023-01-18T16:19:57.677Z,-0.87
2023-01-18T16:22:28.797Z,-0.89
2023-01-18T16:25:15.051Z,-0.89
2023-01-18T16:27:51.358Z,-0.87
2023-01-18T16:30:22.943Z,-0.79
2023-01-18T16:32:49.706Z,-0.74
2023-01-18T16:35:21.510Z,-0.90
2023-01-18T16:37:49.977Z,-0.99
2023-01-18T16:40:20.555Z,-1.18
2023-01-18T16:43:01.520Z,-1.26
2023-01-18T16:45:31.073Z,-1.29
2023-01-18T16:47:57.918Z,-1.42
2023-01-18T16:50:24.831Z,-1.43
2023-01-18T16:52:51.316Z,-1.42
2023-01-18T16:55:18.216Z,-1.38
2023-01-18T16:57:45.629Z,-1.31
2023-01-18T17:00:24.443Z,-1.57
2023-01-18T17:02:51.712Z,-1.69
2023-01-18T17:05:18.940Z,-1.63
2023-01-18T17:07:45.845Z,-1.67
2023-01-18T17:10:36.281Z,-1.72
2023-01-18T17:13:03.228Z,-1.72
2023-01-18T17:15:32.377Z,-1.78
2023-01-18T17:17:58.905Z,-1.84
2023-01-18T17:20:27.259Z,-1.83
2023-01-18T17:22:55.575Z,-1.84
2023-01-18T17:25:23.801Z,-1.86
2023-01-18T17:27:51.027Z,-1.98
2023-01-18T17:30:22.110Z,-1.94
2023-01-18T17:32:49.552Z,-1.89
2023-01-18T17:35:19.954Z,-2.01
2023-01-18T17:37:46.480Z,-2.02
2023-01-18T17:40:22.511Z,-2.13
2023-01-18T17:42:51.772Z,-2.10
2023-01-18T17:45:18.596Z,-2.06
2023-01-18T17:47:45.286Z,-2.06
2023-01-18T17:50:18.937Z,-2.17
2023-01-18T17:52:45.529Z,-2.28
2023-01-18T17:55:14.377Z,-2.41
2023-01-18T17:57:42.195Z,-2.56
2023-01-18T18:00:11.895Z,-2.48
2023-01-18T18:02:38.427Z,-2.44
2023-01-18T18:05:05.788Z,-2.41
2023-01-18T18:07:32.927Z,-2.42
2023-01-18T18:10:01.203Z,-2.47
2023-01-18T18:12:31.411Z,-2.53
2023-01-18T18:14:58.338Z,-2.51
2023-01-18T18:17:28.592Z,-2.52
2023-01-18T18:19:55.595Z,-2.54
2023-01-18T18:22:22.794Z,-2.59
2023-01-18T18:24:50.529Z,-2.62
2023-01-18T18:27:17.952Z,-2.62
2023-01-18T18:29:45.083Z,-2.58
2023-01-18T18:32:13.618Z,-2.70
2023-01-18T18:34:40.450Z,-2.70
2023-01-18T18:37:07.474Z,-2.72
2023-01-18T18:39:34.256Z,-2.72
2023-01-18T18:42:01.554Z,-2.65
2023-01-18T18:44:28.242Z,-2.64
2023-01-18T18:46:54.779Z,-2.74
2023-01-18T18:49:22.054Z,-2.79
2023-01-18T18:51:48.624Z,-2.86
2023-01-18T18:54:15.434Z,-2.85
2023-01-18T18:56:42.255Z,-2.99
2023-01-18T18:59:08.827Z,-2.96
2023-01-18T19:01:35.562Z,-2.87
2023-01-18T19:04:02.527Z,-2.92
2023-01-18T19:06:29.178Z,-2.97
2023-01-18T19:08:55.923Z,-2.93
2023-01-18T19:11:22.952Z,-2.86
2023-01-18T19:13:49.762Z,-2.88
2023-01-18T19:16:17.266Z,-3.01
2023-01-18T19:18:43.890Z,-3.09
2023-01-18T19:21:10.451Z,-3.05
2023-01-18T19:23:36.990Z,-3.07
2023-01-18T19:26:03.911Z,-3.09
2023-01-18T19:28:31.017Z,-3.06
2023-01-18T19:31:16.051Z,-3.07
2023-01-18T19:33:42.614Z,-3.07
2023-01-18T19:36:13.747Z,-3.06
2023-01-18T19:38:46.720Z,-3.12
2023-01-18T19:41:17.352Z,-3.34
2023-01-18T19:43:47.694Z,-3.41
2023-01-18T19:46:15.166Z,-3.38
2023-01-18T19:48:42.416Z,-3.30
2023-01-18T19:51:22.134Z,-3.25
2023-01-18T19:53:51.712Z,-3.24
2023-01-18T19:56:18.329Z,-3.23
2023-01-18T19:58:44.838Z,-3.25
2023-01-18T20:01:23.440Z,-3.41
2023-01-18T20:03:56.996Z,-3.50
2023-01-18T20:06:23.654Z,-3.44
2023-01-18T20:08:53.969Z,-3.37
2023-01-18T20:11:20.514Z,-3.42
2023-01-18T20:13:50.659Z,-3.43
2023-01-18T20:16:20.285Z,-3.45
2023-01-18T20:18:48.714Z,-3.46
2023-01-18T20:21:18.966Z,-3.43
2023-01-18T20:23:46.184Z,-3.40
2023-01-18T20:26:20.014Z,-3.30
2023-01-18T20:28:55.781Z,-3.28
2023-01-18T20:31:23.049Z,-3.24
2023-01-18T20:33:49.619Z,-3.25
2023-01-18T20:36:16.169Z,-3.31
2023-01-18T20:38:42.717Z,-3.35
2023-01-18T20:41:09.213Z,-3.33
2023-01-18T20:43:35.789Z,-3.22
2023-01-18T20:46:09.914Z,-3.08
2023-01-18T20:48:37.808Z,-2.99
2023-01-18T20:51:07.373Z,-2.93
2023-01-18T20:53:34.522Z,-2.86
2023-01-18T20:56:04.129Z,-2.91
2023-01-18T20:58:31.365Z,-2.92
2023-01-18T21:01:03.630Z,-2.86
2023-01-18T21:03:30.140Z,-2.83
2023-01-18T21:05:56.670Z,-2.79
2023-01-18T21:08:23.187Z,-2.76
2023-01-18T21:10:50.823Z,-2.74
2023-01-18T21:13:18.227Z,-2.60
2023-01-18T21:15:47.642Z,-2.46
2023-01-18T21:18:14.115Z,-2.38
2023-01-18T21:20:40.647Z,-2.29
2023-01-18T21:23:07.199Z,-2.28
2023-01-18T21:25:33.660Z,-2.34
2023-01-18T21:28:00.709Z,-2.36
2023-01-18T21:30:27.477Z,-2.34
2023-01-18T21:32:53.985Z,-2.35
2023-01-18T21:35:20.518Z,-2.29
2023-01-18T21:37:47.076Z,-2.25
2023-01-18T21:40:13.565Z,-2.41
2023-01-18T21:42:58.545Z,-2.39
2023-01-18T21:45:43.906Z,-2.44
2023-01-18T21:48:10.471Z,-2.47
2023-01-18T21:50:59.087Z,-2.42
2023-01-18T21:53:44.567Z,-2.37
2023-01-18T21:56:11.167Z,-2.30
2023-01-18T21:58:56.224Z,-2.13
2023-01-18T22:01:38.483Z,-2.11
2023-01-18T22:04:27.748Z,-2.03
2023-01-18T22:06:54.357Z,-1.85
2023-01-18T22:09:21.259Z,-1.74
2023-01-18T22:11:47.989Z,-1.68
2023-01-18T22:14:15.293Z,-1.67
2023-01-18T22:16:42.044Z,-1.59
2023-01-18T22:19:10.609Z,-1.48
2023-01-18T22:21:37.363Z,-1.44
2023-01-18T22:24:04.135Z,-1.45
2023-01-18T22:26:31.187Z,-1.48
2023-01-18T22:28:57.901Z,-1.49
2023-01-18T22:31:25.494Z,-1.43
2023-01-18T22:33:52.093Z,-1.48
2023-01-18T22:36:18.676Z,-1.49
2023-01-18T22:38:45.561Z,-1.41
2023-01-18T22:41:18.809Z,-1.36
2023-01-18T22:43:46.283Z,-1.34
2023-01-18T22:46:16.322Z,-1.25
2023-01-18T22:48:44.651Z,-1.22
2023-01-18T22:51:16.206Z,-1.20
2023-01-18T22:53:44.415Z,-1.18
2023-01-18T22:56:15.172Z,-1.17
2023-01-18T22:58:42.328Z,-1.04
2023-01-18T23:01:28.212Z,-1.26
2023-01-18T23:04:01.898Z,-1.20
2023-01-18T23:06:41.745Z,-1.08
2023-01-18T23:09:10.010Z,-1.00
2023-01-18T23:11:37.876Z,-0.88
2023-01-18T23:14:23.833Z,-0.87
2023-01-18T23:17:09.185Z,-0.87
2023-01-18T23:19:36.267Z,-0.82
2023-01-18T23:22:07.284Z,-0.79
2023-01-18T23:24:36.498Z,-0.79
2023-01-18T23:27:07.128Z,-0.78
2023-01-18T23:29:33.751Z,-0.72
2023-01-18T23:32:00.295Z,-0.70
2023-01-18T23:34:26.789Z,-0.60
2023-01-18T23:36:53.793Z,-0.66
2023-01-18T23:39:38.945Z,-0.66
2023-01-18T23:42:24.188Z,-0.73
2023-01-18T23:45:09.609Z,-0.65
2023-01-18T23:47:54.970Z,-0.59
2023-01-18T23:50:41.427Z,-0.58
2023-01-18T23:53:31.437Z,-0.68
2023-01-18T23:55:58.986Z,-0.68
2023-01-18T23:58:25.931Z,-0.67
